sensor_id;sensor_type;location;lat;lon;timestamp;P1;durP1;ratioP1;P2;durP2;ratioP2
80257;SDS011;69565;37.974;23.708;2023-05-19T00:00:56;2.97;;;1.10;;
80257;SDS011;69565;37.974;23.708;2023-05-19T00:03:23;3.88;;;0.90;;
80257;SDS011;69565;37.974;23.708;2023-05-19T00:05:49;9.70;;;1.20;;
80257;SDS011;69565;37.974;23.708;2023-05-19T00:08:18;8.85;;;1.00;;
80257;SDS011;69565;37.974;23.708;2023-05-19T00:10:44;5.13;;;1.02;;
80257;SDS011;69565;37.974;23.708;2023-05-19T00:13:11;2.42;;;1.10;;
80257;SDS011;69565;37.974;23.708;2023-05-19T00:15:37;3.40;;;1.10;;
80257;SDS011;69565;37.974;23.708;2023-05-19T00:18:03;5.53;;;1.00;;
80257;SDS011;69565;37.974;23.708;2023-05-19T00:20:28;6.57;;;1.00;;
80257;SDS011;69565;37.974;23.708;2023-05-19T00:22:54;6.28;;;1.00;;
80257;SDS011;69565;37.974;23.708;2023-05-19T00:25:20;5.03;;;1.10;;
80257;SDS011;69565;37.974;23.708;2023-05-19T00:27:46;5.95;;;1.00;;
80257;SDS011;69565;37.974;23.708;2023-05-19T00:30:11;5.90;;;1.00;;
80257;SDS011;69565;37.974;23.708;2023-05-19T00:32:37;3.05;;;1.00;;
80257;SDS011;69565;37.974;23.708;2023-05-19T00:35:03;6.93;;;1.25;;
80257;SDS011;69565;37.974;23.708;2023-05-19T00:37:29;5.20;;;1.08;;
80257;SDS011;69565;37.974;23.708;2023-05-19T00:39:55;9.77;;;1.00;;
80257;SDS011;69565;37.974;23.708;2023-05-19T00:42:21;5.68;;;1.10;;
80257;SDS011;69565;37.974;23.708;2023-05-19T00:44:47;4.25;;;1.25;;
80257;SDS011;69565;37.974;23.708;2023-05-19T00:47:12;4.80;;;0.93;;
80257;SDS011;69565;37.974;23.708;2023-05-19T00:49:38;2.83;;;0.95;;
80257;SDS011;69565;37.974;23.708;2023-05-19T00:52:04;3.15;;;0.98;;
80257;SDS011;69565;37.974;23.708;2023-05-19T00:54:32;6.45;;;0.93;;
80257;SDS011;69565;37.974;23.708;2023-05-19T00:56:58;7.75;;;1.02;;
80257;SDS011;69565;37.974;23.708;2023-05-19T00:59:24;6.00;;;0.98;;
80257;SDS011;69565;37.974;23.708;2023-05-19T01:01:50;4.38;;;1.00;;
80257;SDS011;69565;37.974;23.708;2023-05-19T01:04:20;5.63;;;1.10;;
80257;SDS011;69565;37.974;23.708;2023-05-19T01:06:46;3.15;;;1.00;;
80257;SDS011;69565;37.974;23.708;2023-05-19T01:09:22;6.28;;;1.10;;
80257;SDS011;69565;37.974;23.708;2023-05-19T01:11:51;3.13;;;0.90;;
80257;SDS011;69565;37.974;23.708;2023-05-19T01:14:17;3.50;;;0.82;;
80257;SDS011;69565;37.974;23.708;2023-05-19T01:16:49;9.55;;;0.90;;
80257;SDS011;69565;37.974;23.708;2023-05-19T01:25:07;4.57;;;1.25;;
80257;SDS011;69565;37.974;23.708;2023-05-19T01:30:42;2.35;;;0.80;;
80257;SDS011;69565;37.974;23.708;2023-05-19T01:33:11;5.80;;;1.00;;
80257;SDS011;69565;37.974;23.708;2023-05-19T01:35:39;5.18;;;1.00;;
80257;SDS011;69565;37.974;23.708;2023-05-19T01:38:07;8.07;;;1.00;;
80257;SDS011;69565;37.974;23.708;2023-05-19T01:40:34;5.80;;;0.95;;
80257;SDS011;69565;37.974;23.708;2023-05-19T01:43:02;2.25;;;0.95;;
80257;SDS011;69565;37.974;23.708;2023-05-19T01:45:29;9.38;;;1.08;;
80257;SDS011;69565;37.974;23.708;2023-05-19T01:47:58;3.97;;;0.95;;
80257;SDS011;69565;37.974;23.708;2023-05-19T01:50:25;3.70;;;1.00;;
80257;SDS011;69565;37.974;23.708;2023-05-19T01:52:51;3.70;;;1.00;;
80257;SDS011;69565;37.974;23.708;2023-05-19T01:55:18;3.13;;;1.20;;
80257;SDS011;69565;37.974;23.708;2023-05-19T02:05:46;5.55;;;1.15;;
80257;SDS011;69565;37.974;23.708;2023-05-19T02:08:26;6.82;;;1.10;;
80257;SDS011;69565;37.974;23.708;2023-05-19T02:11:21;4.60;;;1.27;;
80257;SDS011;69565;37.974;23.708;2023-05-19T02:13:49;3.05;;;1.08;;
80257;SDS011;69565;37.974;23.708;2023-05-19T02:16:19;6.30;;;1.00;;
80257;SDS011;69565;37.974;23.708;2023-05-19T02:18:49;5.97;;;1.10;;
80257;SDS011;69565;37.974;23.708;2023-05-19T02:21:17;5.53;;;0.90;;
80257;SDS011;69565;37.974;23.708;2023-05-19T02:23:43;4.55;;;0.98;;
80257;SDS011;69565;37.974;23.708;2023-05-19T02:26:09;3.65;;;1.20;;
80257;SDS011;69565;37.974;23.708;2023-05-19T02:28:35;2.45;;;0.90;;
80257;SDS011;69565;37.974;23.708;2023-05-19T02:31:01;3.95;;;1.00;;
80257;SDS011;69565;37.974;23.708;2023-05-19T02:33:27;8.23;;;1.20;;
80257;SDS011;69565;37.974;23.708;2023-05-19T02:35:54;2.10;;;1.00;;
80257;SDS011;69565;37.974;23.708;2023-05-19T02:38:20;7.65;;;1.20;;
80257;SDS011;69565;37.974;23.708;2023-05-19T02:40:46;5.05;;;1.00;;
80257;SDS011;69565;37.974;23.708;2023-05-19T02:43:12;6.40;;;1.10;;
80257;SDS011;69565;37.974;23.708;2023-05-19T02:45:37;6.53;;;1.08;;
80257;SDS011;69565;37.974;23.708;2023-05-19T02:48:03;4.93;;;0.98;;
80257;SDS011;69565;37.974;23.708;2023-05-19T02:50:29;1.75;;;0.90;;
80257;SDS011;69565;37.974;23.708;2023-05-19T02:52:55;3.50;;;1.00;;
80257;SDS011;69565;37.974;23.708;2023-05-19T02:55:20;7.40;;;1.00;;
80257;SDS011;69565;37.974;23.708;2023-05-19T02:57:46;1.85;;;0.90;;
80257;SDS011;69565;37.974;23.708;2023-05-19T03:00:12;3.17;;;1.00;;
80257;SDS011;69565;37.974;23.708;2023-05-19T03:02:38;3.67;;;1.00;;
80257;SDS011;69565;37.974;23.708;2023-05-19T03:05:05;4.35;;;1.10;;
80257;SDS011;69565;37.974;23.708;2023-05-19T03:07:32;6.93;;;1.00;;
80257;SDS011;69565;37.974;23.708;2023-05-19T03:09:58;5.25;;;0.90;;
80257;SDS011;69565;37.974;23.708;2023-05-19T03:12:24;5.63;;;1.00;;
80257;SDS011;69565;37.974;23.708;2023-05-19T03:14:50;2.65;;;1.00;;
80257;SDS011;69565;37.974;23.708;2023-05-19T03:17:15;5.43;;;1.02;;
80257;SDS011;69565;37.974;23.708;2023-05-19T03:19:41;2.63;;;0.85;;
80257;SDS011;69565;37.974;23.708;2023-05-19T03:22:07;5.07;;;1.00;;
80257;SDS011;69565;37.974;23.708;2023-05-19T03:24:32;3.00;;;0.90;;
80257;SDS011;69565;37.974;23.708;2023-05-19T03:26:58;1.63;;;0.90;;
80257;SDS011;69565;37.974;23.708;2023-05-19T03:29:24;7.28;;;1.00;;
80257;SDS011;69565;37.974;23.708;2023-05-19T03:31:49;3.50;;;0.90;;
80257;SDS011;69565;37.974;23.708;2023-05-19T03:34:16;6.00;;;1.10;;
80257;SDS011;69565;37.974;23.708;2023-05-19T03:36:41;2.58;;;0.95;;
80257;SDS011;69565;37.974;23.708;2023-05-19T03:39:09;4.47;;;1.30;;
80257;SDS011;69565;37.974;23.708;2023-05-19T03:41:35;2.45;;;0.85;;
80257;SDS011;69565;37.974;23.708;2023-05-19T03:44:01;4.68;;;1.02;;
80257;SDS011;69565;37.974;23.708;2023-05-19T03:46:26;4.22;;;1.00;;
80257;SDS011;69565;37.974;23.708;2023-05-19T03:48:52;8.20;;;1.20;;
80257;SDS011;69565;37.974;23.708;2023-05-19T03:51:18;5.38;;;1.30;;
80257;SDS011;69565;37.974;23.708;2023-05-19T03:53:43;2.00;;;1.20;;
80257;SDS011;69565;37.974;23.708;2023-05-19T03:56:09;4.63;;;1.02;;
80257;SDS011;69565;37.974;23.708;2023-05-19T03:58:38;10.52;;;1.40;;
80257;SDS011;69565;37.974;23.708;2023-05-19T04:01:08;3.22;;;1.42;;
80257;SDS011;69565;37.974;23.708;2023-05-19T04:03:34;6.72;;;1.40;;
80257;SDS011;69565;37.974;23.708;2023-05-19T04:06:00;4.47;;;1.35;;
80257;SDS011;69565;37.974;23.708;2023-05-19T04:08:26;7.97;;;1.63;;
80257;SDS011;69565;37.974;23.708;2023-05-19T04:10:51;5.40;;;1.45;;
80257;SDS011;69565;37.974;23.708;2023-05-19T04:13:17;2.47;;;1.38;;
80257;SDS011;69565;37.974;23.708;2023-05-19T04:15:43;2.83;;;1.25;;
80257;SDS011;69565;37.974;23.708;2023-05-19T04:18:08;5.90;;;1.75;;
80257;SDS011;69565;37.974;23.708;2023-05-19T04:20:34;6.82;;;1.30;;
80257;SDS011;69565;37.974;23.708;2023-05-19T04:23:00;6.82;;;1.48;;
80257;SDS011;69565;37.974;23.708;2023-05-19T04:25:25;5.63;;;1.33;;
80257;SDS011;69565;37.974;23.708;2023-05-19T04:27:52;4.30;;;1.55;;
80257;SDS011;69565;37.974;23.708;2023-05-19T04:30:21;6.00;;;1.30;;
80257;SDS011;69565;37.974;23.708;2023-05-19T04:32:48;4.10;;;1.10;;
80257;SDS011;69565;37.974;23.708;2023-05-19T04:35:17;4.55;;;1.35;;
80257;SDS011;69565;37.974;23.708;2023-05-19T04:37:43;6.68;;;1.50;;
80257;SDS011;69565;37.974;23.708;2023-05-19T04:40:12;5.75;;;1.20;;
80257;SDS011;69565;37.974;23.708;2023-05-19T04:42:38;7.28;;;1.33;;
80257;SDS011;69565;37.974;23.708;2023-05-19T04:45:09;2.65;;;1.10;;
80257;SDS011;69565;37.974;23.708;2023-05-19T04:47:38;3.10;;;1.20;;
80257;SDS011;69565;37.974;23.708;2023-05-19T04:50:04;2.63;;;1.10;;
80257;SDS011;69565;37.974;23.708;2023-05-19T04:52:31;4.15;;;1.20;;
80257;SDS011;69565;37.974;23.708;2023-05-19T04:54:57;3.03;;;1.33;;
80257;SDS011;69565;37.974;23.708;2023-05-19T04:57:23;2.28;;;1.00;;
80257;SDS011;69565;37.974;23.708;2023-05-19T04:59:49;4.18;;;1.23;;
80257;SDS011;69565;37.974;23.708;2023-05-19T05:02:16;4.28;;;1.10;;
80257;SDS011;69565;37.974;23.708;2023-05-19T05:04:41;2.58;;;1.10;;
80257;SDS011;69565;37.974;23.708;2023-05-19T05:07:08;3.42;;;1.17;;
80257;SDS011;69565;37.974;23.708;2023-05-19T05:09:34;4.35;;;1.00;;
80257;SDS011;69565;37.974;23.708;2023-05-19T05:12:01;3.15;;;1.02;;
80257;SDS011;69565;37.974;23.708;2023-05-19T05:14:27;1.95;;;1.00;;
80257;SDS011;69565;37.974;23.708;2023-05-19T05:16:53;4.00;;;0.90;;
80257;SDS011;69565;37.974;23.708;2023-05-19T05:19:20;4.13;;;1.08;;
80257;SDS011;69565;37.974;23.708;2023-05-19T05:21:46;3.85;;;0.95;;
80257;SDS011;69565;37.974;23.708;2023-05-19T05:24:12;1.15;;;0.93;;
80257;SDS011;69565;37.974;23.708;2023-05-19T05:26:38;2.00;;;0.90;;
80257;SDS011;69565;37.974;23.708;2023-05-19T05:29:04;5.20;;;0.85;;
80257;SDS011;69565;37.974;23.708;2023-05-19T05:31:30;1.23;;;0.80;;
80257;SDS011;69565;37.974;23.708;2023-05-19T05:33:56;3.58;;;0.80;;
80257;SDS011;69565;37.974;23.708;2023-05-19T05:36:22;1.67;;;0.88;;
80257;SDS011;69565;37.974;23.708;2023-05-19T05:38:48;3.40;;;0.93;;
80257;SDS011;69565;37.974;23.708;2023-05-19T05:41:14;1.25;;;0.85;;
80257;SDS011;69565;37.974;23.708;2023-05-19T05:43:40;2.95;;;0.90;;
80257;SDS011;69565;37.974;23.708;2023-05-19T05:46:05;1.40;;;0.80;;
80257;SDS011;69565;37.974;23.708;2023-05-19T05:48:31;1.63;;;0.70;;
80257;SDS011;69565;37.974;23.708;2023-05-19T05:50:57;2.33;;;0.73;;
80257;SDS011;69565;37.974;23.708;2023-05-19T05:53:24;1.00;;;0.70;;
80257;SDS011;69565;37.974;23.708;2023-05-19T05:55:54;1.13;;;0.60;;
80257;SDS011;69565;37.974;23.708;2023-05-19T05:58:20;2.83;;;0.60;;
80257;SDS011;69565;37.974;23.708;2023-05-19T06:00:46;3.53;;;0.60;;
80257;SDS011;69565;37.974;23.708;2023-05-19T06:03:15;1.90;;;0.52;;
80257;SDS011;69565;37.974;23.708;2023-05-19T06:05:41;1.90;;;0.60;;
80257;SDS011;69565;37.974;23.708;2023-05-19T06:08:06;1.15;;;0.50;;
80257;SDS011;69565;37.974;23.708;2023-05-19T06:10:32;1.23;;;0.50;;
80257;SDS011;69565;37.974;23.708;2023-05-19T06:12:59;1.38;;;0.60;;
80257;SDS011;69565;37.974;23.708;2023-05-19T06:15:25;2.10;;;0.50;;
80257;SDS011;69565;37.974;23.708;2023-05-19T06:17:51;1.10;;;0.50;;
80257;SDS011;69565;37.974;23.708;2023-05-19T06:20:16;0.70;;;0.40;;
80257;SDS011;69565;37.974;23.708;2023-05-19T06:22:42;1.10;;;0.40;;
80257;SDS011;69565;37.974;23.708;2023-05-19T06:25:08;2.75;;;0.50;;
80257;SDS011;69565;37.974;23.708;2023-05-19T06:27:34;0.90;;;0.47;;
80257;SDS011;69565;37.974;23.708;2023-05-19T06:30:00;0.50;;;0.40;;
80257;SDS011;69565;37.974;23.708;2023-05-19T06:32:26;0.70;;;0.40;;
80257;SDS011;69565;37.974;23.708;2023-05-19T06:34:53;1.35;;;0.40;;
80257;SDS011;69565;37.974;23.708;2023-05-19T06:37:20;1.33;;;0.40;;
80257;SDS011;69565;37.974;23.708;2023-05-19T06:39:47;4.30;;;0.40;;
80257;SDS011;69565;37.974;23.708;2023-05-19T06:42:19;0.68;;;0.40;;
80257;SDS011;69565;37.974;23.708;2023-05-19T06:44:49;0.98;;;0.40;;
80257;SDS011;69565;37.974;23.708;2023-05-19T06:47:16;1.92;;;0.40;;
80257;SDS011;69565;37.974;23.708;2023-05-19T06:49:45;2.30;;;0.40;;
80257;SDS011;69565;37.974;23.708;2023-05-19T06:52:14;0.63;;;0.40;;
80257;SDS011;69565;37.974;23.708;2023-05-19T06:54:40;0.55;;;0.32;;
80257;SDS011;69565;37.974;23.708;2023-05-19T06:57:06;1.65;;;0.40;;
80257;SDS011;69565;37.974;23.708;2023-05-19T06:59:32;1.20;;;0.50;;
80257;SDS011;69565;37.974;23.708;2023-05-19T07:01:58;4.53;;;0.40;;
80257;SDS011;69565;37.974;23.708;2023-05-19T07:04:23;2.85;;;0.40;;
80257;SDS011;69565;37.974;23.708;2023-05-19T07:06:49;3.00;;;0.40;;
80257;SDS011;69565;37.974;23.708;2023-05-19T07:09:15;6.15;;;0.60;;
80257;SDS011;69565;37.974;23.708;2023-05-19T07:11:41;1.73;;;0.40;;
80257;SDS011;69565;37.974;23.708;2023-05-19T07:14:06;2.65;;;0.40;;
80257;SDS011;69565;37.974;23.708;2023-05-19T07:16:32;3.10;;;0.70;;
80257;SDS011;69565;37.974;23.708;2023-05-19T07:18:58;0.88;;;0.50;;
80257;SDS011;69565;37.974;23.708;2023-05-19T07:21:23;2.05;;;0.50;;
80257;SDS011;69565;37.974;23.708;2023-05-19T07:23:49;0.82;;;0.40;;
80257;SDS011;69565;37.974;23.708;2023-05-19T07:26:15;1.13;;;0.50;;
80257;SDS011;69565;37.974;23.708;2023-05-19T07:28:40;2.67;;;0.60;;
80257;SDS011;69565;37.974;23.708;2023-05-19T07:31:07;3.42;;;0.60;;
80257;SDS011;69565;37.974;23.708;2023-05-19T07:33:33;2.85;;;0.50;;
80257;SDS011;69565;37.974;23.708;2023-05-19T07:35:59;7.25;;;0.73;;
80257;SDS011;69565;37.974;23.708;2023-05-19T07:38:25;3.20;;;0.50;;
80257;SDS011;69565;37.974;23.708;2023-05-19T07:40:52;1.75;;;0.50;;
80257;SDS011;69565;37.974;23.708;2023-05-19T07:43:18;1.02;;;0.55;;
80257;SDS011;69565;37.974;23.708;2023-05-19T07:45:44;4.53;;;0.47;;
80257;SDS011;69565;37.974;23.708;2023-05-19T07:48:09;6.75;;;0.60;;
80257;SDS011;69565;37.974;23.708;2023-05-19T07:50:35;2.63;;;0.50;;
80257;SDS011;69565;37.974;23.708;2023-05-19T07:53:01;1.20;;;0.50;;
80257;SDS011;69565;37.974;23.708;2023-05-19T07:55:27;4.18;;;0.50;;
80257;SDS011;69565;37.974;23.708;2023-05-19T07:57:53;4.35;;;0.50;;
80257;SDS011;69565;37.974;23.708;2023-05-19T08:00:18;1.35;;;0.50;;
80257;SDS011;69565;37.974;23.708;2023-05-19T08:02:44;2.75;;;0.60;;
80257;SDS011;69565;37.974;23.708;2023-05-19T08:05:10;1.60;;;0.50;;
80257;SDS011;69565;37.974;23.708;2023-05-19T08:07:36;1.08;;;0.50;;
80257;SDS011;69565;37.974;23.708;2023-05-19T08:10:02;2.53;;;0.63;;
80257;SDS011;69565;37.974;23.708;2023-05-19T08:12:28;2.10;;;0.60;;
80257;SDS011;69565;37.974;23.708;2023-05-19T08:14:53;1.20;;;0.60;;
80257;SDS011;69565;37.974;23.708;2023-05-19T08:17:19;3.35;;;0.60;;
80257;SDS011;69565;37.974;23.708;2023-05-19T08:19:45;2.63;;;0.50;;
80257;SDS011;69565;37.974;23.708;2023-05-19T08:22:11;0.75;;;0.50;;
80257;SDS011;69565;37.974;23.708;2023-05-19T08:24:37;2.92;;;0.40;;
80257;SDS011;69565;37.974;23.708;2023-05-19T08:27:03;1.75;;;0.50;;
80257;SDS011;69565;37.974;23.708;2023-05-19T08:29:29;2.35;;;0.60;;
80257;SDS011;69565;37.974;23.708;2023-05-19T08:31:55;0.90;;;0.60;;
80257;SDS011;69565;37.974;23.708;2023-05-19T08:34:22;4.57;;;0.55;;
80257;SDS011;69565;37.974;23.708;2023-05-19T08:36:48;1.20;;;0.57;;
80257;SDS011;69565;37.974;23.708;2023-05-19T08:39:14;3.45;;;0.77;;
80257;SDS011;69565;37.974;23.708;2023-05-19T08:41:42;3.25;;;0.50;;
80257;SDS011;69565;37.974;23.708;2023-05-19T08:44:08;3.10;;;0.60;;
80257;SDS011;69565;37.974;23.708;2023-05-19T08:46:34;1.30;;;0.60;;
80257;SDS011;69565;37.974;23.708;2023-05-19T08:49:10;1.70;;;0.50;;
80257;SDS011;69565;37.974;23.708;2023-05-19T08:54:36;1.30;;;0.70;;
80257;SDS011;69565;37.974;23.708;2023-05-19T08:57:10;1.80;;;0.70;;
80257;SDS011;69565;37.974;23.708;2023-05-19T08:59:36;1.70;;;0.55;;
80257;SDS011;69565;37.974;23.708;2023-05-19T09:02:03;1.00;;;0.57;;
80257;SDS011;69565;37.974;23.708;2023-05-19T09:04:30;1.30;;;0.57;;
80257;SDS011;69565;37.974;23.708;2023-05-19T09:06:56;1.83;;;0.60;;
80257;SDS011;69565;37.974;23.708;2023-05-19T09:09:26;1.48;;;0.70;;
80257;SDS011;69565;37.974;23.708;2023-05-19T09:11:53;2.75;;;0.60;;
80257;SDS011;69565;37.974;23.708;2023-05-19T09:14:18;1.13;;;0.60;;
80257;SDS011;69565;37.974;23.708;2023-05-19T09:16:44;5.85;;;0.60;;
80257;SDS011;69565;37.974;23.708;2023-05-19T09:19:13;0.93;;;0.60;;
80257;SDS011;69565;37.974;23.708;2023-05-19T09:21:41;5.75;;;0.60;;
80257;SDS011;69565;37.974;23.708;2023-05-19T09:24:09;7.53;;;0.60;;
80257;SDS011;69565;37.974;23.708;2023-05-19T09:26:36;2.60;;;0.70;;
80257;SDS011;69565;37.974;23.708;2023-05-19T09:29:10;3.97;;;0.68;;
80257;SDS011;69565;37.974;23.708;2023-05-19T09:31:37;6.00;;;0.70;;
80257;SDS011;69565;37.974;23.708;2023-05-19T09:34:02;1.42;;;0.70;;
80257;SDS011;69565;37.974;23.708;2023-05-19T09:36:28;8.23;;;0.70;;
80257;SDS011;69565;37.974;23.708;2023-05-19T09:38:55;1.92;;;0.70;;
80257;SDS011;69565;37.974;23.708;2023-05-19T09:41:21;0.90;;;0.63;;
80257;SDS011;69565;37.974;23.708;2023-05-19T09:43:53;3.50;;;0.70;;
80257;SDS011;69565;37.974;23.708;2023-05-19T09:46:23;3.47;;;0.70;;
80257;SDS011;69565;37.974;23.708;2023-05-19T09:48:58;1.05;;;0.60;;
80257;SDS011;69565;37.974;23.708;2023-05-19T09:51:24;4.10;;;0.60;;
80257;SDS011;69565;37.974;23.708;2023-05-19T09:53:51;2.38;;;0.60;;
80257;SDS011;69565;37.974;23.708;2023-05-19T09:56:19;0.85;;;0.60;;
80257;SDS011;69565;37.974;23.708;2023-05-19T09:58:47;2.38;;;0.50;;
80257;SDS011;69565;37.974;23.708;2023-05-19T10:01:13;1.08;;;0.60;;
80257;SDS011;69565;37.974;23.708;2023-05-19T10:03:39;3.72;;;0.60;;
80257;SDS011;69565;37.974;23.708;2023-05-19T10:06:06;3.90;;;0.60;;
80257;SDS011;69565;37.974;23.708;2023-05-19T10:08:33;3.25;;;0.60;;
80257;SDS011;69565;37.974;23.708;2023-05-19T10:10:59;3.85;;;0.60;;
80257;SDS011;69565;37.974;23.708;2023-05-19T10:13:26;2.13;;;0.60;;
80257;SDS011;69565;37.974;23.708;2023-05-19T10:15:53;1.75;;;0.70;;
80257;SDS011;69565;37.974;23.708;2023-05-19T10:18:21;2.90;;;0.73;;
80257;SDS011;69565;37.974;23.708;2023-05-19T10:20:49;1.20;;;0.70;;
80257;SDS011;69565;37.974;23.708;2023-05-19T10:23:17;2.83;;;0.60;;
80257;SDS011;69565;37.974;23.708;2023-05-19T10:25:42;2.40;;;0.70;;
80257;SDS011;69565;37.974;23.708;2023-05-19T10:28:12;1.65;;;0.70;;
80257;SDS011;69565;37.974;23.708;2023-05-19T10:30:41;1.60;;;0.68;;
80257;SDS011;69565;37.974;23.708;2023-05-19T10:33:35;3.20;;;0.60;;
80257;SDS011;69565;37.974;23.708;2023-05-19T10:36:42;4.25;;;0.70;;
80257;SDS011;69565;37.974;23.708;2023-05-19T10:39:15;1.60;;;0.60;;
80257;SDS011;69565;37.974;23.708;2023-05-19T10:47:28;5.10;;;0.60;;
80257;SDS011;69565;37.974;23.708;2023-05-19T10:49:54;0.77;;;0.70;;
80257;SDS011;69565;37.974;23.708;2023-05-19T10:52:20;4.30;;;0.70;;
